Weather History for Jonesville, VA

Change the Weather History Date:

Wednesday, January 30, 2013

  Actual Average (KLOZ) Record (KLOZ)
Temperature  
Mean Temperature 52 °F 36 °F  
Max Temperature 64 °F 46 °F 72 °F (2002)
Min Temperature 41 °F 27 °F -13 °F (1966)
Degree Days  
Heating Degree Days 12 29  
Month to date heating degree days 887  
Since 1 July heating degree days 2539  
Cooling Degree Days 0 0  
Month to date cooling degree days 0  
Year to date cooling degree days 0  
Growing Degree Days 2 (Base 50)    
Moisture  
Dew Point 52 °F    
Average Humidity 88    
Maximum Humidity 100    
Minimum Humidity 68    
Precipitation  
Precipitation 2.29 in 0.12 in 1.71 in (2013)
Month to date precipitation 3.41  
Year to date precipitation 3.41  
Sea Level Pressure  
Sea Level Pressure 29.65 in    
Wind  
Wind Speed 7 mph (South)    
Max Wind Speed 20 mph    
Max Gust Speed 26 mph    
Visibility 7 miles    
Events Rain    
T = Trace of Precipitation, MM = Missing Value Source: NWS Daily Summary

Daily Weather History Graph

Daily Weather History Graph

Search for Another Location

Airport:

Trip Planner

Search our weather history database for the weather conditions in past years. The results will help you decide how hot, cold, wet, or windy it might be!

Date:

Astronomy

Jan. 30, 2013 Rise Set
Actual Time 7:36 AM EST 5:56 PM EST
Civil Twilight 7:08 AM EST 6:24 PM EST
Nautical Twilight 6:37 AM EST 6:55 PM EST
Astronomical Twilight 6:07 AM EST 7:25 PM EST
Moon 9:46 PM EST (1/30) 9:10 AM EST (1/30)
Length of Visible Light 11h 15m
Length of Day
10h 20m
Waning Gibbous, 88% of the Moon is Illuminated
Jan 30
Waning Gibbous
Feb 3
Last Quarter
Feb 10
New
Feb 17
First Quarter
Feb 25
Full

Hourly Weather History & Observations

Time (EST) Temp. Windchill Dew Point Humidity Pressure Visibility Wind Dir Wind Speed Gust Speed Precip Events Conditions
12:15 AM 59.0 °F - 53.6 °F 82% 29.90 in 10.0 mi SE 6.9 mph - N/A   Overcast
12:35 AM 60.8 °F - 53.6 °F 77% 29.88 in 10.0 mi SE 8.1 mph - N/A   Overcast
12:55 AM 59.0 °F - 53.6 °F 82% 29.87 in 10.0 mi SSE 4.6 mph - N/A   Mostly Cloudy
1:15 AM 59.0 °F - 53.6 °F 82% 29.86 in 10.0 mi SE 4.6 mph - N/A   Mostly Cloudy
1:35 AM 59.0 °F - 53.6 °F 82% 29.85 in 10.0 mi SSE 5.8 mph - N/A   Overcast
1:55 AM 60.8 °F - 53.6 °F 77% 29.84 in 10.0 mi SSE 8.1 mph - N/A   Overcast
2:15 AM 60.8 °F - 55.4 °F 82% 29.83 in 10.0 mi SSE 8.1 mph - N/A   Mostly Cloudy
2:35 AM 60.8 °F - 55.4 °F 82% 29.82 in 10.0 mi SSE 6.9 mph - N/A   Mostly Cloudy
2:55 AM 60.8 °F - 55.4 °F 82% 29.80 in 10.0 mi SSE 6.9 mph - N/A   Mostly Cloudy
3:15 AM 62.6 °F - 55.4 °F 77% 29.80 in 10.0 mi SSE 6.9 mph - N/A   Mostly Cloudy
3:35 AM 62.6 °F - 55.4 °F 77% 29.79 in 10.0 mi SSE 9.2 mph - N/A   Overcast
3:55 AM 62.6 °F - 55.4 °F 77% 29.78 in 10.0 mi SSE 6.9 mph - N/A   Overcast
4:15 AM 62.6 °F - 55.4 °F 77% 29.76 in 10.0 mi SSE 6.9 mph - N/A   Overcast
4:35 AM 62.6 °F - 55.4 °F 77% 29.75 in 10.0 mi SSE 5.8 mph - N/A   Overcast
4:55 AM 64.4 °F - 53.6 °F 68% 29.75 in 10.0 mi South 8.1 mph 17.3 mph N/A   Overcast
5:15 AM 64.4 °F - 53.6 °F 68% 29.72 in 10.0 mi SSE 6.9 mph - N/A   Overcast
5:35 AM 64.4 °F - 53.6 °F 68% 29.71 in 10.0 mi South 8.1 mph - N/A   Overcast
5:55 AM 64.4 °F - 55.4 °F 73% 29.71 in 10.0 mi SSE 6.9 mph - N/A   Overcast
6:15 AM 64.4 °F - 55.4 °F 73% 29.69 in 10.0 mi SE 9.2 mph - N/A   Overcast
6:35 AM 64.4 °F - 55.4 °F 73% 29.67 in 10.0 mi SSE 9.2 mph - N/A   Overcast
6:55 AM 64.4 °F - 55.4 °F 73% 29.68 in 10.0 mi SSE 10.4 mph - N/A   Overcast
7:15 AM 64.4 °F - 55.4 °F 73% 29.68 in 10.0 mi SSE 8.1 mph - N/A   Overcast
7:35 AM 64.4 °F - 55.4 °F 73% 29.68 in 10.0 mi SSE 8.1 mph - N/A   Overcast
7:55 AM 62.6 °F - 57.2 °F 82% 29.68 in 7.0 mi South 3.5 mph - N/A Rain Light Rain
8:15 AM 62.6 °F - 57.2 °F 82% 29.68 in 2.5 mi South 5.8 mph - 0.01 in Rain Light Rain
8:35 AM 59.0 °F - 59.0 °F 100% 29.67 in 10.0 mi NNE 5.8 mph - 0.01 in   Overcast
8:55 AM 59.0 °F - 57.2 °F 94% 29.66 in 10.0 mi Calm Calm - 0.01 in Rain Light Rain
9:15 AM 59.0 °F - 57.2 °F 94% 29.66 in 10.0 mi NNW 4.6 mph - N/A   Overcast
9:35 AM 57.2 °F - 57.2 °F 100% 29.70 in 0.8 mi North 5.8 mph - 0.48 in Rain Rain
9:55 AM 57.2 °F - 57.2 °F 100% 29.72 in 1.2 mi SW 3.5 mph - 0.69 in Rain Heavy Rain
10:15 AM 55.4 °F - 55.4 °F 100% 29.72 in 1.0 mi South 3.5 mph - 0.10 in Rain Heavy Rain
10:35 AM 55.4 °F - 55.4 °F 100% 29.69 in 1.8 mi ESE 4.6 mph - 0.19 in Rain Rain
10:55 AM 55.4 °F - 55.4 °F 100% 29.70 in 1.0 mi SE 3.5 mph - 0.28 in Rain Rain
11:15 AM 55.4 °F - 55.4 °F 100% 29.69 in 1.5 mi ESE 3.5 mph - 0.03 in Rain Rain
11:35 AM 55.4 °F - 55.4 °F 100% 29.70 in 1.2 mi SSE 4.6 mph - 0.12 in Rain Rain
11:55 AM 55.4 °F - 55.4 °F 100% 29.67 in 2.0 mi SSE 4.6 mph - 0.20 in Rain Rain
12:15 PM 55.4 °F - 55.4 °F 100% 29.66 in 2.0 mi ESE 4.6 mph - 0.03 in Rain Light Rain
12:35 PM 55.4 °F - 55.4 °F 100% 29.64 in 1.8 mi Calm Calm - 0.08 in Rain Rain
12:55 PM 55.4 °F - 55.4 °F 100% 29.63 in 1.5 mi Calm Calm - 0.16 in Rain Light Rain
1:15 PM 55.4 °F - 55.4 °F 100% 29.61 in 2.5 mi East 3.5 mph - 0.02 in Rain Light Rain
1:35 PM 55.4 °F - 55.4 °F 100% 29.60 in 1.8 mi Calm Calm - 0.07 in Rain Light Rain
1:55 PM 55.4 °F - 55.4 °F 100% 29.60 in 1.5 mi ESE 4.6 mph - 0.15 in Rain Rain
2:15 PM 55.4 °F - 55.4 °F 100% 29.59 in 2.0 mi ESE 3.5 mph - 0.06 in Rain Rain
2:35 PM 55.4 °F - 55.4 °F 100% 29.58 in 2.0 mi SSE 4.6 mph - 0.13 in Rain Rain
2:55 PM 55.4 °F - 55.4 °F 100% 29.56 in 3.0 mi ESE 5.8 mph - 0.17 in Rain Light Rain
3:15 PM 55.4 °F - 55.4 °F 100% 29.54 in 4.0 mi SE 3.5 mph - 0.02 in Rain Light Rain
3:35 PM 55.4 °F - 55.4 °F 100% 29.54 in 3.0 mi South 4.6 mph - 0.06 in Rain Light Rain
3:55 PM 55.4 °F - 55.4 °F 100% 29.52 in 2.5 mi Calm Calm - 0.11 in Rain Light Rain
4:15 PM 55.4 °F - 55.4 °F 100% 29.51 in 5.0 mi Calm Calm - 0.02 in Rain Light Rain
4:35 PM 55.4 °F - 55.4 °F 100% 29.51 in 3.0 mi SW 3.5 mph - 0.05 in Rain Rain
4:55 PM 55.4 °F - 55.4 °F 100% 29.51 in 1.8 mi West 9.2 mph - 0.14 in Rain Heavy Rain
5:15 PM 53.6 °F - 53.6 °F 100% 29.55 in 1.8 mi West 15.0 mph 23.0 mph 0.08 in Rain Heavy Rain
5:35 PM 51.8 °F - 48.2 °F 88% 29.56 in 3.0 mi WSW 12.7 mph 18.4 mph 0.13 in Rain Light Rain
5:55 PM 50.0 °F - 46.4 °F 87% 29.56 in 3.0 mi West 15.0 mph 20.7 mph 0.21 in Rain Rain
6:15 PM 48.2 °F - 46.4 °F 93% 29.57 in 5.0 mi WSW 9.2 mph - 0.03 in Rain Rain
6:35 PM 48.2 °F - 46.4 °F 93% 29.55 in 3.0 mi Calm Calm - 0.09 in Rain Light Rain
6:55 PM 46.4 °F 44.3 °F 46.4 °F 100% 29.55 in 10.0 mi South 4.6 mph - 0.11 in   Mostly Cloudy
7:15 PM 48.2 °F - 44.6 °F 87% 29.55 in 10.0 mi SSW 4.6 mph - N/A Rain Light Rain
7:35 PM 46.4 °F 43.5 °F 44.6 °F 93% 29.54 in 10.0 mi SSW 5.8 mph - N/A   Mostly Cloudy
7:55 PM 46.4 °F 42.4 °F 44.6 °F 93% 29.55 in 8.0 mi SSW 8.1 mph - N/A Rain Light Rain
8:15 PM 46.4 °F 41.1 °F 42.8 °F 87% 29.53 in 8.0 mi SSW 11.5 mph - N/A Rain Light Rain
8:35 PM 46.4 °F 40.7 °F 42.8 °F 87% 29.54 in 10.0 mi South 12.7 mph - N/A   Mostly Cloudy
8:55 PM 46.4 °F 41.1 °F 41.0 °F 81% 29.54 in 10.0 mi SSW 11.5 mph 19.6 mph N/A   Overcast
9:15 PM 46.4 °F 41.9 °F 41.0 °F 81% 29.52 in 10.0 mi SW 9.2 mph - N/A   Overcast
9:35 PM 46.4 °F 41.9 °F 41.0 °F 81% 29.55 in 10.0 mi SW 9.2 mph - N/A   Overcast
9:55 PM 46.4 °F 42.9 °F 41.0 °F 81% 29.54 in 10.0 mi SW 6.9 mph - N/A Rain Light Rain
10:15 PM 46.4 °F 42.9 °F 41.0 °F 81% 29.52 in 8.0 mi WSW 6.9 mph - N/A Rain Light Rain
10:35 PM 44.6 °F 38.1 °F 41.0 °F 87% 29.54 in 3.0 mi West 13.8 mph 25.3 mph 0.06 in Rain Rain
11:15 PM 41.0 °F 32.5 °F 37.4 °F 87% 29.59 in 10.0 mi West 17.3 mph 21.9 mph N/A   Mostly Cloudy
11:35 PM 41.0 °F 33.9 °F 35.6 °F 81% 29.60 in 10.0 mi West 12.7 mph 25.3 mph N/A Rain Light Rain
11:55 PM 41.0 °F 31.9 °F 35.6 °F 81% 29.61 in 7.0 mi WNW 19.6 mph 26.5 mph N/A Rain Light Rain